Time,TemperatureF,DewpointF,PressureIn,WindDirection,WindDirectionDegrees,WindSpeedMPH,WindSpeedGustMPH,Humidity,HourlyPrecipIn,Conditions,Clouds,dailyrainin,SoftwareType,DateUTC
2013-03-17 00:13:00,17.9,3.2,30.23,South,181,0.0,0.0,52,0.00,CLR,,0.00,WeatherDisplay:10.37,2013-03-17 08:13:00,
2013-03-17 00:28:00,17.9,2.8,30.24,South,181,0.0,0.0,51,0.00,CLR,,0.00,WeatherDisplay:10.37,2013-03-17 08:28:00,
2013-03-17 00:43:00,17.8,3.1,30.24,South,181,0.0,0.0,52,0.00,CLR,,0.00,WeatherDisplay:10.37,2013-03-17 08:43:00,
2013-03-17 00:58:00,17.6,2.5,30.25,South,181,0.0,0.0,51,0.00,CLR,,0.00,WeatherDisplay:10.37,2013-03-17 08:58:00,
2013-03-17 01:28:00,17.6,2.9,30.25,South,175,0.0,0.0,52,0.00,CLR,,0.00,WeatherDisplay:10.37,2013-03-17 09:28:00,
2013-03-17 01:43:00,17.1,2.5,30.25,South,175,0.0,0.0,52,0.00,CLR,,0.00,WeatherDisplay:10.37,2013-03-17 09:43:00,
2013-03-17 01:58:00,16.8,2.2,30.26,South,175,0.0,0.0,52,0.00,CLR,,0.00,WeatherDisplay:10.37,2013-03-17 09:58:00,
2013-03-17 02:13:00,16.3,1.7,30.26,South,175,0.0,0.0,52,0.00,CLR,,0.00,WeatherDisplay:10.37,2013-03-17 10:13:00,
2013-03-17 02:28:00,15.7,1.6,30.26,South,175,0.0,0.0,53,0.00,CLR,,0.00,WeatherDisplay:10.37,2013-03-17 10:28:00,
2013-03-17 02:43:00,15.4,1.7,30.26,South,175,0.0,0.0,54,0.00,CLR,,0.00,WeatherDisplay:10.37,2013-03-17 10:43:00,
2013-03-17 02:58:00,15.2,1.5,30.27,South,175,0.0,0.0,54,0.00,CLR,,0.00,WeatherDisplay:10.37,2013-03-17 10:58:00,
2013-03-17 03:13:00,14.8,1.1,30.27,South,175,0.0,0.0,54,0.00,CLR,,0.00,WeatherDisplay:10.37,2013-03-17 11:13:00,
2013-03-17 03:28:00,13.8,0.6,30.27,South,175,0.0,0.0,55,0.00,CLR,,0.00,WeatherDisplay:10.37,2013-03-17 11:28:00,
2013-03-17 03:43:00,13.1,0.4,30.28,South,175,0.0,1.0,56,0.00,CLR,,0.00,WeatherDisplay:10.37,2013-03-17 11:43:00,
2013-03-17 03:58:00,13.2,0.8,30.28,South,175,0.0,0.0,57,0.00,CLR,,0.00,WeatherDisplay:10.37,2013-03-17 11:58:00,
2013-03-17 04:13:00,12.9,0.9,30.29,South,175,0.0,0.0,58,0.00,CLR,,0.00,WeatherDisplay:10.37,2013-03-17 12:13:00,
2013-03-17 04:28:00,12.6,0.6,30.29,South,175,0.0,0.0,58,0.00,CLR,,0.00,WeatherDisplay:10.37,2013-03-17 12:28:00,
2013-03-17 04:43:00,12.0,0.0,30.29,South,175,0.0,0.0,58,0.00,CLR,,0.00,WeatherDisplay:10.37,2013-03-17 12:43:00,
2013-03-17 04:58:00,11.4,-0.2,30.29,South,175,0.0,0.0,59,0.00,CLR,,0.00,WeatherDisplay:10.37,2013-03-17 12:58:00,
2013-03-17 05:13:00,10.8,-0.7,30.30,South,175,0.0,0.0,59,0.00,CLR,,0.00,WeatherDisplay:10.37,2013-03-17 13:13:00,
2013-03-17 05:28:00,9.6,-1.9,30.30,South,175,0.0,0.0,59,0.00,CLR,,0.00,WeatherDisplay:10.37,2013-03-17 13:28:00,
2013-03-17 05:43:00,9.6,-1.1,30.30,South,175,0.0,0.0,61,0.00,CLR,,0.00,WeatherDisplay:10.37,2013-03-17 13:43:00,
2013-03-17 05:58:00,9.5,-1.3,30.30,South,175,0.0,0.0,61,0.00,CLR,,0.00,WeatherDisplay:10.37,2013-03-17 13:58:00,
2013-03-17 06:13:00,8.9,-1.9,30.31,South,175,0.0,0.0,61,0.00,CLR,,0.00,WeatherDisplay:10.37,2013-03-17 14:13:00,
2013-03-17 06:28:00,7.5,-3.1,30.31,South,175,0.0,0.0,61,0.00,CLR,,0.00,WeatherDisplay:10.37,2013-03-17 14:28:00,
2013-03-17 06:43:00,5.7,-4.6,30.32,ENE,62,3.0,6.0,62,0.00,CLR,,0.00,WeatherDisplay:10.37,2013-03-17 14:43:00,
2013-03-17 06:58:00,4.5,-5.0,30.32,ENE,63,3.0,5.0,64,0.00,CLR,,0.00,WeatherDisplay:10.37,2013-03-17 14:58:00,
2013-03-17 07:13:00,3.8,-5.0,30.32,ENE,70,5.0,7.0,66,0.00,CLR,,0.00,WeatherDisplay:10.37,2013-03-17 15:13:00,
2013-03-17 07:28:00,3.3,-5.2,30.32,ENE,70,6.0,8.0,67,0.00,CLR,,0.00,WeatherDisplay:10.37,2013-03-17 15:28:00,
2013-03-17 07:43:00,3.0,-5.2,30.32,ENE,77,6.0,9.0,68,0.00,CLR,,0.00,WeatherDisplay:10.37,2013-03-17 15:43:00,
2013-03-17 07:58:00,2.6,-5.6,30.33,East,82,7.0,10.0,68,0.00,CLR,,0.00,WeatherDisplay:10.37,2013-03-17 15:58:00,
2013-03-17 08:13:00,2.0,-6.1,30.33,East,82,6.0,9.0,68,0.00,CLR,,0.00,WeatherDisplay:10.37,2013-03-17 16:13:00,
2013-03-17 08:28:00,1.5,-6.3,30.33,ENE,78,6.0,8.0,69,0.00,CLR,,0.00,WeatherDisplay:10.37,2013-03-17 16:28:00,
2013-03-17 08:43:00,1.1,-6.7,30.34,East,85,5.0,7.0,69,0.00,CLR,,0.00,WeatherDisplay:10.37,2013-03-17 16:43:00,
2013-03-17 08:58:00,0.9,-6.9,30.34,East,84,6.0,9.0,69,0.00,CLR,,0.00,WeatherDisplay:10.37,2013-03-17 16:58:00,
2013-03-17 09:13:00,1.1,-6.4,30.35,East,90,2.0,8.0,70,0.00,CLR,,0.00,WeatherDisplay:10.37,2013-03-17 17:13:00,
2013-03-17 09:28:00,1.4,-6.1,30.35,East,82,2.0,7.0,70,0.00,CLR,,0.00,WeatherDisplay:10.37,2013-03-17 17:28:00,
2013-03-17 09:43:00,1.7,-5.6,30.35,East,83,1.0,7.0,71,0.00,CLR,,0.00,WeatherDisplay:10.37,2013-03-17 17:43:00,
2013-03-17 09:58:00,2.0,-5.2,30.35,ENE,74,5.0,6.0,71,0.00,CLR,,0.00,WeatherDisplay:10.37,2013-03-17 17:58:00,
2013-03-17 10:13:00,2.3,-4.9,30.35,East,83,3.0,7.0,71,0.00,CLR,,0.00,WeatherDisplay:10.37,2013-03-17 18:13:00,
2013-03-17 10:28:00,2.8,-3.9,30.35,ENE,76,3.0,7.0,73,0.00,CLR,,0.00,WeatherDisplay:10.37,2013-03-17 18:28:00,
2013-03-17 10:43:00,3.4,-3.3,30.35,East,81,5.0,9.0,73,0.00,CLR,,0.00,WeatherDisplay:10.37,2013-03-17 18:43:00,
2013-03-17 10:58:00,4.1,-2.9,30.35,ENE,69,3.0,7.0,72,0.00,CLR,,0.00,WeatherDisplay:10.37,2013-03-17 18:58:00,
2013-03-17 11:13:00,5.1,-1.9,30.35,ENE,70,3.0,7.0,72,0.00,CLR,,0.00,WeatherDisplay:10.37,2013-03-17 19:13:00,
2013-03-17 11:28:00,6.2,-1.2,30.35,ENE,70,5.0,8.0,71,0.00,CLR,,0.00,WeatherDisplay:10.37,2013-03-17 19:28:00,
2013-03-17 11:43:00,7.0,-0.7,30.36,ENE,73,5.0,8.0,70,0.00,CLR,,0.00,WeatherDisplay:10.37,2013-03-17 19:43:00,
2013-03-17 11:58:00,7.8,-0.3,30.36,ENE,61,2.0,7.0,69,0.00,CLR,,0.00,WeatherDisplay:10.37,2013-03-17 19:58:00,
2013-03-17 12:13:00,8.5,0.1,30.36,ESE,106,0.0,5.0,68,0.00,CLR,,0.00,WeatherDisplay:10.37,2013-03-17 20:13:00,
2013-03-17 12:28:00,9.3,0.9,30.36,ENE,67,2.0,5.0,68,0.00,CLR,,0.00,WeatherDisplay:10.37,2013-03-17 20:28:00,
2013-03-17 12:43:00,9.8,1.0,30.36,NNE,14,1.0,5.0,67,0.00,CLR,,0.00,WeatherDisplay:10.37,2013-03-17 20:43:00,
2013-03-17 12:58:00,9.4,0.3,30.35,NW,323,0.0,4.0,66,0.00,CLR,,0.00,WeatherDisplay:10.37,2013-03-17 20:58:00,
2013-03-17 13:13:00,8.8,-0.3,30.35,West,269,2.0,5.0,66,0.00,CLR,,0.00,WeatherDisplay:10.37,2013-03-17 21:13:00,
2013-03-17 13:28:00,8.5,-0.6,30.35,West,264,0.0,5.0,66,0.00,CLR,,0.00,WeatherDisplay:10.37,2013-03-17 21:28:00,
2013-03-17 13:43:00,8.7,-0.3,30.34,West,264,0.0,5.0,66,0.00,CLR,,0.00,WeatherDisplay:10.37,2013-03-17 21:43:00,
2013-03-17 13:58:00,9.0,-0.1,30.34,West,264,0.0,5.0,66,0.00,CLR,,0.00,WeatherDisplay:10.37,2013-03-17 21:58:00,
2013-03-17 14:13:00,9.2,0.1,30.34,SW,223,0.0,0.0,66,0.00,CLR,,0.00,WeatherDisplay:10.37,2013-03-17 22:13:00,
2013-03-17 14:28:00,9.7,0.3,30.34,WSW,257,0.0,2.0,65,0.00,CLR,,0.00,WeatherDisplay:10.37,2013-03-17 22:28:00,
2013-03-17 14:43:00,10.3,0.8,30.33,WSW,257,0.0,0.0,65,0.00,CLR,,0.00,WeatherDisplay:10.37,2013-03-17 22:43:00,
2013-03-17 14:58:00,10.8,1.0,30.33,West,270,3.0,5.0,64,0.00,CLR,,0.00,WeatherDisplay:10.37,2013-03-17 22:58:00,
2013-03-17 15:13:00,11.5,1.7,30.32,WNW,290,3.0,5.0,64,0.00,CLR,,0.00,WeatherDisplay:10.37,2013-03-17 23:13:00,
2013-03-17 15:28:00,12.0,1.8,30.32,WNW,288,0.0,5.0,63,0.00,CLR,,0.00,WeatherDisplay:10.37,2013-03-17 23:28:00,
2013-03-17 15:43:00,13.2,2.6,30.31,West,272,0.0,4.0,62,0.00,CLR,,0.00,WeatherDisplay:10.37,2013-03-17 23:43:00,
2013-03-17 15:58:00,14.5,3.5,30.31,West,260,0.0,0.0,61,0.00,CLR,,0.00,WeatherDisplay:10.37,2013-03-17 23:58:00,
2013-03-17 16:13:00,15.1,3.7,30.30,West,260,0.0,0.0,60,0.00,CLR,,0.00,WeatherDisplay:10.37,2013-03-18 00:13:00,
2013-03-17 16:28:00,15.5,3.7,30.29,West,260,0.0,0.0,59,0.00,CLR,,0.00,WeatherDisplay:10.37,2013-03-18 00:28:00,
2013-03-17 16:43:00,15.9,4.1,30.29,West,272,0.0,5.0,59,0.00,CLR,,0.00,WeatherDisplay:10.37,2013-03-18 00:43:00,
2013-03-17 16:58:00,16.1,3.9,30.28,WNW,282,0.0,0.0,58,0.00,CLR,,0.00,WeatherDisplay:10.37,2013-03-18 00:58:00,
2013-03-17 17:13:00,16.2,4.0,30.28,WNW,282,0.0,0.0,58,0.00,CLR,,0.00,WeatherDisplay:10.37,2013-03-18 01:13:00,
2013-03-17 17:28:00,17.2,4.9,30.28,WNW,286,0.0,3.0,58,0.00,CLR,,0.00,WeatherDisplay:10.37,2013-03-18 01:28:00,
2013-03-17 17:43:00,17.9,4.8,30.27,WNW,291,0.0,0.0,56,0.00,CLR,,0.00,WeatherDisplay:10.37,2013-03-18 01:43:00,
2013-03-17 17:58:00,17.4,4.7,30.25,WNW,291,0.0,0.0,57,0.00,CLR,,0.00,WeatherDisplay:10.37,2013-03-18 01:58:00,
2013-03-17 18:13:00,17.2,4.5,30.22,WNW,291,0.0,0.0,57,0.00,CLR,,0.00,WeatherDisplay:10.37,2013-03-18 02:13:00,
2013-03-17 18:28:00,17.5,4.0,30.20,WNW,291,0.0,0.0,55,0.00,CLR,,0.00,WeatherDisplay:10.37,2013-03-18 02:28:00,
2013-03-17 18:43:00,17.0,4.0,30.21,WNW,291,0.0,0.0,56,0.00,CLR,,0.00,WeatherDisplay:10.37,2013-03-18 02:43:00,
2013-03-17 18:58:00,16.4,3.1,30.21,WNW,291,0.0,0.0,55,0.00,CLR,,0.00,WeatherDisplay:10.37,2013-03-18 02:58:00,
2013-03-17 19:28:00,14.9,2.4,30.23,WNW,291,0.0,0.0,57,0.00,CLR,,0.00,WeatherDisplay:10.37,2013-03-18 03:28:00,
2013-03-17 19:43:00,14.2,1.7,30.23,WNW,291,0.0,0.0,57,0.00,CLR,,0.00,WeatherDisplay:10.37,2013-03-18 03:43:00,
2013-03-17 19:58:00,13.5,1.5,30.23,WNW,291,0.0,0.0,58,0.00,CLR,,0.00,WeatherDisplay:10.37,2013-03-18 03:58:00,
2013-03-17 20:13:00,13.0,1.0,30.23,WNW,288,0.0,2.0,58,0.00,CLR,,0.00,WeatherDisplay:10.37,2013-03-18 04:13:00,
2013-03-17 20:28:00,12.6,0.6,30.23,WSW,237,0.0,3.0,58,0.00,CLR,,0.00,WeatherDisplay:10.37,2013-03-18 04:28:00,
2013-03-17 20:43:00,12.6,0.9,30.23,WSW,251,0.0,2.0,59,0.00,CLR,,0.00,WeatherDisplay:10.37,2013-03-18 04:43:00,
2013-03-17 20:58:00,12.6,1.0,30.23,WSW,243,2.0,3.0,59,0.00,CLR,,0.00,WeatherDisplay:10.37,2013-03-18 04:58:00,
2013-03-17 21:13:00,12.5,0.9,30.23,South,189,0.0,3.0,59,0.00,CLR,,0.00,WeatherDisplay:10.37,2013-03-18 05:13:00,
2013-03-17 21:28:00,12.3,0.7,30.23,South,189,0.0,0.0,59,0.00,CLR,,0.00,WeatherDisplay:10.37,2013-03-18 05:28:00,
2013-03-17 21:43:00,12.1,0.8,30.23,South,189,0.0,0.0,60,0.00,CLR,,0.00,WeatherDisplay:10.37,2013-03-18 05:43:00,
2013-03-17 21:58:00,11.8,0.6,30.23,South,189,0.0,0.0,60,0.00,CLR,,0.00,WeatherDisplay:10.37,2013-03-18 05:58:00,
2013-03-17 22:13:00,11.6,0.7,30.22,SSW,195,0.0,2.0,61,0.00,CLR,,0.00,WeatherDisplay:10.37,2013-03-18 06:13:00,
2013-03-17 22:28:00,11.6,0.8,30.22,SSW,196,0.0,0.0,61,0.00,CLR,,0.00,WeatherDisplay:10.37,2013-03-18 06:28:00,
2013-03-17 22:43:00,11.7,0.9,30.22,SSW,196,0.0,0.0,61,0.00,CLR,,0.00,WeatherDisplay:10.37,2013-03-18 06:43:00,
2013-03-17 22:58:00,11.4,0.5,30.22,SSW,196,0.0,0.0,61,0.00,CLR,,0.00,WeatherDisplay:10.37,2013-03-18 06:58:00,
2013-03-17 23:13:00,10.7,-0.1,30.21,SSW,196,0.0,0.0,61,0.00,CLR,,0.00,WeatherDisplay:10.37,2013-03-18 07:13:00,
2013-03-17 23:28:00,10.0,-0.8,30.21,SSW,196,0.0,0.0,61,0.00,CLR,,0.00,WeatherDisplay:10.37,2013-03-18 07:28:00,
2013-03-17 23:43:00,9.7,-0.7,30.20,SSW,196,0.0,0.0,62,0.00,CLR,,0.00,WeatherDisplay:10.37,2013-03-18 07:43:00,
2013-03-17 23:58:00,9.4,-1.0,30.20,SSW,196,0.0,0.0,62,0.00,CLR,,0.00,WeatherDisplay:10.37,2013-03-18 07:58:00,